FNHU/NOV METAR and TAF weather

Enter ICAO airport designator
Station Type Date Time Source
FNHU METAR 2020/07/05 14:00 UTC NOAA

FNHU 051400Z 07007KT CAVOK 24/03 Q1021


Station Type Date Time Source
FNHU Decoded METAR 2020/07/05 14:00 UTC NOAA

Huambo Nova Lisboa , Angola (FNHU) 12-48S 015-45E 1701M
Jul 05, 2020 - 10:00 AM EDT / 2020.07.05 1400 UTC
Wind: from the ENE (070 degrees) at 8 MPH (7 KT):0
Visibility: greater than 7 mile(s):0
Temperature: 75 F (24 C)
Dew Point: 37 F (3 C)
Relative Humidity: 25%
Pressure (altimeter): 30.15 in. Hg (1021 hPa)
ob: FNHU 051400Z 07007KT CAVOK 24/03 Q1021
cycle: 14

Station Type Date Time Source
FNHU TAF 2020/07/05 12:54 UTC NOAA

TAF TAF FNHU 051100Z 0512/0524 06008KT CAVOK

Example: see airport list